Terminal Aerodrome Forecast
Issued by NWS

Home | Current Version | Previous Version | Text Only | Print | Product List | Glossary On
Versions: 1 2 3 4 5 6 7 8 9 10 11 12 13 14 15 16 17 18 19 20 21
000
FTUS43 KBIS 280536
TAFJMS
TAF
KJMS 280536Z 2806/2906 12009KT P6SM -SHRA OVC080
     FM281000 14006KT P6SM SCT015 BKN040
     FM281500 19010KT P6SM SCT040
     FM281900 29013G20KT P6SM BKN100=

USA.gov is the U.S. government's official web portal to all federal, state and local government web resources and services.